createdAt,value
2022-11-01T00:00:41.068Z,4.05
2022-11-01T00:03:26.488Z,2.85
2022-11-01T00:06:12.135Z,2.33
2022-11-01T00:08:57.664Z,3.33
2022-11-01T00:11:43.350Z,3.13
2022-11-01T00:14:28.753Z,2.70
2022-11-01T00:17:14.327Z,4.72
2022-11-01T00:19:59.939Z,3.20
2022-11-01T00:22:45.216Z,2.60
2022-11-01T00:25:30.792Z,3.33
2022-11-01T00:28:16.376Z,2.85
2022-11-01T00:31:01.979Z,2.45
2022-11-01T00:33:47.868Z,3.17
2022-11-01T00:36:34.466Z,2.55
2022-11-01T00:39:20.152Z,4.13
2022-11-01T00:42:05.634Z,3.45
2022-11-01T00:44:50.901Z,2.60
2022-11-01T00:47:36.571Z,2.95
2022-11-01T00:50:21.864Z,3.20
2022-11-01T00:53:07.856Z,3.17
2022-11-01T00:55:53.236Z,3.13
2022-11-01T00:58:38.568Z,2.40
2022-11-01T01:01:24.293Z,3.05
2022-11-01T01:04:09.978Z,2.00
2022-11-01T01:06:55.482Z,3.45
2022-11-01T01:09:41.015Z,2.42
2022-11-01T01:12:26.698Z,2.35
2022-11-01T01:15:13.890Z,2.13
2022-11-01T01:17:59.763Z,2.45
2022-11-01T01:20:45.664Z,2.40
2022-11-01T01:23:31.617Z,2.40
2022-11-01T01:26:17.465Z,2.63
2022-11-01T01:29:02.973Z,2.67
2022-11-01T01:31:50.772Z,4.07
2022-11-01T01:34:37.041Z,2.08
2022-11-01T01:37:22.578Z,2.65
2022-11-01T01:40:09.152Z,3.60
2022-11-01T01:42:54.506Z,4.30
2022-11-01T01:45:42.143Z,2.80
2022-11-01T01:48:27.772Z,2.33
2022-11-01T01:51:16.572Z,3.22
2022-11-01T01:54:02.214Z,4.05
2022-11-01T01:56:47.686Z,2.83
2022-11-01T01:59:33.353Z,3.08
2022-11-01T02:02:20.469Z,2.92
2022-11-01T02:05:24.419Z,5.65
2022-11-01T02:08:11.313Z,3.22
2022-11-01T02:11:01.508Z,3.47
2022-11-01T02:13:47.927Z,6.20
2022-11-01T02:16:38.145Z,3.25
2022-11-01T02:20:07.778Z,5.40
2022-11-01T02:23:11.258Z,3.60
2022-11-01T02:26:15.167Z,3.13
2022-11-01T02:29:15.865Z,2.97
2022-11-01T02:32:19.202Z,2.35
2022-11-01T02:35:24.170Z,3.30
2022-11-01T02:38:18.208Z,2.00
2022-11-01T02:41:32.079Z,1.20
2022-11-01T02:44:22.371Z,1.20
2022-11-01T02:47:11.826Z,0.88
2022-11-01T02:50:01.379Z,0.65
2022-11-01T02:52:47.775Z,0.73
2022-11-01T02:55:36.276Z,0.88
2022-11-01T02:58:28.653Z,0.95
2022-11-01T03:01:19.428Z,1.02
2022-11-01T03:04:05.116Z,1.05
2022-11-01T03:06:57.280Z,1.10
2022-11-01T03:09:43.057Z,1.00
2022-11-01T03:12:35.210Z,1.27
2022-11-01T03:15:31.642Z,1.20
2022-11-01T03:18:26.677Z,1.67
2022-11-01T03:21:19.916Z,1.77
2022-11-01T03:24:27.255Z,3.58
2022-11-01T03:27:18.713Z,3.53
2022-11-01T03:30:10.830Z,2.10
2022-11-01T03:32:57.726Z,3.17
2022-11-01T03:35:46.734Z,2.67
2022-11-01T03:38:37.334Z,2.50
2022-11-01T03:41:25.182Z,3.03
2022-11-01T03:44:12.834Z,2.85
2022-11-01T03:46:58.354Z,2.83
2022-11-01T03:49:43.752Z,2.97
2022-11-01T03:52:29.310Z,3.97
2022-11-01T03:55:19.448Z,3.60
2022-11-01T03:58:05.419Z,3.83
2022-11-01T04:00:51.124Z,3.83
2022-11-01T04:03:36.971Z,2.90
2022-11-01T04:06:22.111Z,3.33
2022-11-01T04:09:07.705Z,3.28
2022-11-01T04:11:52.886Z,5.72
2022-11-01T04:14:56.952Z,2.80
2022-11-01T04:18:00.907Z,3.55
2022-11-01T04:20:46.714Z,2.55
2022-11-01T04:23:32.063Z,2.63
2022-11-01T04:26:19.597Z,2.90
2022-11-01T04:29:04.748Z,3.20
2022-11-01T04:31:50.082Z,3.05
2022-11-01T04:34:44.569Z,5.07
2022-11-01T04:37:31.601Z,3.50
2022-11-01T04:40:16.873Z,3.15
2022-11-01T04:43:02.386Z,2.67
2022-11-01T04:45:57.152Z,2.72
2022-11-01T04:48:42.865Z,2.92
2022-11-01T04:51:28.495Z,2.42
2022-11-01T04:54:13.814Z,3.05
2022-11-01T04:56:59.604Z,3.13
2022-11-01T04:59:45.056Z,3.33
2022-11-01T05:02:30.528Z,3.22
2022-11-01T05:05:16.547Z,2.72
2022-11-01T05:08:10.074Z,4.28
2022-11-01T05:10:56.084Z,2.67
2022-11-01T05:13:41.345Z,2.35
2022-11-01T05:16:27.080Z,4.07
2022-11-01T05:19:12.218Z,2.83
2022-11-01T05:21:59.750Z,3.53
2022-11-01T05:24:45.248Z,4.68
2022-11-01T05:27:30.496Z,3.13
2022-11-01T05:30:16.746Z,2.70
2022-11-01T05:33:02.847Z,2.90
2022-11-01T05:35:48.708Z,4.25
2022-11-01T05:38:34.234Z,3.33
2022-11-01T05:41:19.766Z,3.45
2022-11-01T05:44:05.237Z,3.92
2022-11-01T05:46:50.693Z,4.47
2022-11-01T05:49:36.326Z,3.58
2022-11-01T05:52:21.679Z,4.55
2022-11-01T05:55:08.811Z,3.25
2022-11-01T05:57:58.476Z,5.13
2022-11-01T06:00:44.088Z,3.15
2022-11-01T06:03:29.834Z,5.00
2022-11-01T06:06:15.306Z,2.75
2022-11-01T06:09:01.663Z,2.40
2022-11-01T06:11:47.180Z,4.55
2022-11-01T06:14:32.808Z,3.83
2022-11-01T06:17:18.182Z,6.63
2022-11-01T06:20:04.153Z,4.07
2022-11-01T06:22:49.632Z,6.65
2022-11-01T06:25:35.501Z,3.20
2022-11-01T06:28:20.879Z,5.85
2022-11-01T06:33:52.007Z,4.65
2022-11-01T06:36:37.952Z,4.78
2022-11-01T06:39:23.601Z,5.80
2022-11-01T06:42:10.154Z,4.50
2022-11-01T06:44:55.709Z,4.65
2022-11-01T06:47:45.678Z,5.38
2022-11-01T06:50:31.494Z,4.43
2022-11-01T06:53:17.075Z,5.13
2022-11-01T06:56:03.114Z,4.28
2022-11-01T06:58:49.944Z,5.32
2022-11-01T07:01:35.769Z,4.78
2022-11-01T07:04:21.561Z,4.72
2022-11-01T07:07:07.380Z,5.07
2022-11-01T07:09:52.914Z,4.40
2022-11-01T07:12:38.378Z,3.75
2022-11-01T07:15:23.864Z,3.78
2022-11-01T07:18:09.677Z,4.80
2022-11-01T07:20:54.856Z,4.07
2022-11-01T07:23:40.537Z,7.13
2022-11-01T07:26:26.062Z,4.18
2022-11-01T07:29:11.737Z,4.45
2022-11-01T07:31:57.167Z,4.32
2022-11-01T07:34:42.448Z,4.28
2022-11-01T07:37:30.973Z,5.45
2022-11-01T07:40:16.879Z,4.03
2022-11-01T07:43:02.859Z,6.13
2022-11-01T07:45:48.661Z,8.07
2022-11-01T07:48:34.122Z,4.80
2022-11-01T07:51:19.575Z,6.00
2022-11-01T07:54:04.845Z,4.38
2022-11-01T07:56:50.319Z,4.28
2022-11-01T07:59:37.132Z,3.90
2022-11-01T08:02:23.121Z,4.25
2022-11-01T08:05:10.818Z,4.88
2022-11-01T08:07:56.767Z,5.35
2022-11-01T08:10:42.718Z,5.35
2022-11-01T08:13:28.389Z,5.55
2022-11-01T08:16:18.376Z,5.18
2022-11-01T08:19:03.904Z,4.82
2022-11-01T08:21:53.063Z,4.72
2022-11-01T08:24:38.972Z,3.50
2022-11-01T08:27:24.288Z,3.78
2022-11-01T08:30:10.264Z,3.28
2022-11-01T08:33:03.473Z,4.00
2022-11-01T08:35:50.888Z,3.95
2022-11-01T08:38:36.317Z,4.88
2022-11-01T08:41:21.651Z,2.90
2022-11-01T08:44:07.295Z,4.00
2022-11-01T08:46:55.556Z,3.67
2022-11-01T08:49:40.602Z,5.20
2022-11-01T08:52:26.328Z,4.43
2022-11-01T08:55:12.014Z,4.05
2022-11-01T08:58:01.063Z,3.00
2022-11-01T09:00:46.872Z,3.10
2022-11-01T09:03:32.342Z,3.15
2022-11-01T09:06:17.736Z,2.95
2022-11-01T09:09:04.501Z,3.00
2022-11-01T09:11:49.845Z,2.88
2022-11-01T09:14:35.731Z,4.47
2022-11-01T09:17:21.202Z,3.72
2022-11-01T09:20:08.348Z,2.85
2022-11-01T09:22:53.921Z,4.63
2022-11-01T09:25:39.395Z,3.38
2022-11-01T09:28:26.191Z,5.00
2022-11-01T09:31:20.550Z,3.92
2022-11-01T09:34:06.774Z,5.20
2022-11-01T09:36:52.685Z,3.95
2022-11-01T09:39:38.288Z,3.35
2022-11-01T09:42:39.842Z,4.50
2022-11-01T09:45:29.514Z,4.40
2022-11-01T09:48:15.458Z,3.92
2022-11-01T09:51:08.131Z,2.97
2022-11-01T09:53:55.170Z,3.25
2022-11-01T09:57:01.037Z,4.43
2022-11-01T10:00:01.208Z,6.45
2022-11-01T10:03:05.203Z,4.85
2022-11-01T10:06:11.782Z,4.88
2022-11-01T10:09:45.903Z,4.03
2022-11-01T10:12:48.856Z,4.45
2022-11-01T10:15:55.799Z,3.40
2022-11-01T10:18:52.298Z,3.05
2022-11-01T10:21:48.291Z,4.47
2022-11-01T10:24:39.567Z,3.72
2022-11-01T10:27:36.280Z,3.63
2022-11-01T10:30:22.867Z,2.47
2022-11-01T10:33:29.599Z,2.72
2022-11-01T10:36:20.013Z,2.95
2022-11-01T10:42:26.444Z,2.42
2022-11-01T10:45:17.400Z,2.53
2022-11-01T10:48:04.328Z,2.55
2022-11-01T10:50:51.182Z,2.22
2022-11-01T10:53:43.834Z,2.55
2022-11-01T10:56:41.896Z,2.60
2022-11-01T10:59:41.046Z,2.15
2022-11-01T11:02:34.456Z,2.10
2022-11-01T11:05:22.825Z,1.40
2022-11-01T11:08:15.973Z,2.10
2022-11-01T11:13:53.948Z,2.03
2022-11-01T11:16:48.191Z,2.03
2022-11-01T11:19:35.401Z,1.65
2022-11-01T11:22:24.053Z,1.77
2022-11-01T11:25:19.020Z,1.52
2022-11-01T11:28:05.624Z,2.40
2022-11-01T11:30:51.825Z,2.30
2022-11-01T11:33:37.652Z,2.70
2022-11-01T11:36:35.470Z,2.95
2022-11-01T11:39:31.434Z,3.40
2022-11-01T11:42:19.471Z,3.08
2022-11-01T11:45:14.553Z,2.67
2022-11-01T11:48:20.846Z,2.78
2022-11-01T11:51:06.754Z,2.45
2022-11-01T11:54:22.569Z,2.63
2022-11-01T11:57:18.318Z,2.65
2022-11-01T12:00:05.928Z,3.20
2022-11-01T12:02:51.162Z,2.90
2022-11-01T12:05:36.722Z,3.22
2022-11-01T12:08:59.333Z,2.30
2022-11-01T12:11:47.978Z,1.90
2022-11-01T12:14:37.976Z,2.05
2022-11-01T12:17:33.036Z,1.73
2022-11-01T12:20:26.186Z,1.73
2022-11-01T12:23:27.009Z,2.22
2022-11-01T12:26:16.567Z,2.58
2022-11-01T12:29:16.346Z,3.05
2022-11-01T12:32:12.817Z,2.47
2022-11-01T12:35:06.747Z,3.25
2022-11-01T12:38:23.210Z,3.28
2022-11-01T12:41:44.527Z,2.67
2022-11-01T12:44:36.249Z,2.70
2022-11-01T12:47:46.840Z,4.40
2022-11-01T12:50:52.037Z,2.97
2022-11-01T12:54:06.095Z,3.60
2022-11-01T12:56:57.264Z,3.15
2022-11-01T12:59:45.026Z,2.90
2022-11-01T13:02:51.966Z,3.75
2022-11-01T13:05:40.730Z,4.13
2022-11-01T13:08:56.837Z,5.35
2022-11-01T13:11:58.047Z,3.53
2022-11-01T13:14:52.720Z,2.78
2022-11-01T13:17:42.709Z,2.58
2022-11-01T13:20:45.659Z,2.75
2022-11-01T13:23:42.413Z,2.00
2022-11-01T13:26:37.008Z,2.28
2022-11-01T13:29:51.939Z,2.70
2022-11-01T13:32:44.749Z,2.08
2022-11-01T13:36:11.245Z,2.00
2022-11-01T13:39:17.899Z,2.13
2022-11-01T13:42:28.145Z,2.58
2022-11-01T13:45:13.172Z,1.58
2022-11-01T13:48:35.846Z,1.10
2022-11-01T13:51:34.332Z,1.17
2022-11-01T13:54:29.462Z,1.45
2022-11-01T13:57:18.063Z,1.40
2022-11-01T14:00:06.994Z,0.93
2022-11-01T14:02:58.208Z,0.95
2022-11-01T14:05:44.934Z,1.00
2022-11-01T14:08:39.194Z,1.77
2022-11-01T14:11:44.980Z,1.17
2022-11-01T14:14:30.320Z,1.35
2022-11-01T14:17:26.982Z,1.13
2022-11-01T14:20:14.291Z,1.27
2022-11-01T14:23:28.539Z,0.88
2022-11-01T14:26:20.246Z,1.23
2022-11-01T14:29:11.277Z,1.52
2022-11-01T14:31:57.663Z,0.88
2022-11-01T14:34:45.404Z,1.67
2022-11-01T14:37:38.361Z,1.55
2022-11-01T14:40:46.703Z,1.80
2022-11-01T14:46:52.245Z,1.45
2022-11-01T14:49:44.174Z,1.20
2022-11-01T14:52:36.472Z,1.75
2022-11-01T14:55:36.191Z,1.60
2022-11-01T14:58:24.920Z,2.17
2022-11-01T15:01:17.199Z,1.58
2022-11-01T15:04:02.796Z,1.73
2022-11-01T15:06:49.008Z,1.67
2022-11-01T15:09:34.291Z,1.60
2022-11-01T15:12:19.999Z,2.90
2022-11-01T15:15:06.021Z,2.38
2022-11-01T15:18:01.742Z,2.10
2022-11-01T15:20:50.367Z,3.05
2022-11-01T15:23:38.097Z,3.17
2022-11-01T15:26:28.081Z,1.63
2022-11-01T15:29:27.706Z,2.75
2022-11-01T15:32:30.401Z,2.28
2022-11-01T15:35:26.741Z,2.50
2022-11-01T15:38:20.759Z,2.85
2022-11-01T15:41:32.386Z,2.80
2022-11-01T15:44:22.297Z,2.50
2022-11-01T15:47:18.426Z,2.60
2022-11-01T15:50:06.537Z,3.35
2022-11-01T15:52:53.508Z,4.03
2022-11-01T15:55:44.231Z,3.60
2022-11-01T15:58:39.257Z,2.33
2022-11-01T16:01:24.857Z,4.50
2022-11-01T16:04:14.275Z,3.00
2022-11-01T16:07:04.966Z,3.05
2022-11-01T16:09:55.572Z,2.63
2022-11-01T16:12:45.283Z,3.30
2022-11-01T16:15:33.146Z,2.72
2022-11-01T16:18:25.498Z,3.55
2022-11-01T16:21:22.987Z,4.05
2022-11-01T16:24:21.456Z,3.20
2022-11-01T16:27:08.711Z,3.17
2022-11-01T16:29:54.985Z,2.65
2022-11-01T16:32:40.077Z,3.20
2022-11-01T16:35:32.271Z,2.75
2022-11-01T16:38:32.935Z,3.13
2022-11-01T16:41:21.080Z,4.20
2022-11-01T16:44:14.561Z,4.07
2022-11-01T16:49:48.669Z,3.75
2022-11-01T16:52:35.480Z,3.90
2022-11-01T16:55:22.708Z,3.70
2022-11-01T16:58:16.457Z,4.05
2022-11-01T17:01:01.794Z,3.15
2022-11-01T17:03:48.527Z,5.63
2022-11-01T17:06:38.623Z,3.15
2022-11-01T17:09:24.980Z,3.30
2022-11-01T17:12:11.530Z,3.08
2022-11-01T17:14:56.772Z,3.17
2022-11-01T17:17:44.603Z,2.70
2022-11-01T17:20:29.901Z,2.97
2022-11-01T17:23:19.260Z,3.83
2022-11-01T17:26:05.290Z,4.10
2022-11-01T17:28:52.458Z,4.15
2022-11-01T17:31:38.242Z,4.03
2022-11-01T17:34:24.472Z,4.18
2022-11-01T17:37:15.102Z,3.47
2022-11-01T17:40:01.403Z,3.80
2022-11-01T17:42:46.755Z,3.28
2022-11-01T17:45:32.185Z,2.50
2022-11-01T17:48:18.685Z,4.10
2022-11-01T17:51:03.859Z,2.78
2022-11-01T17:53:56.761Z,3.03
2022-11-01T17:56:42.098Z,2.78
2022-11-01T17:59:27.225Z,2.45
2022-11-01T18:02:13.083Z,2.80
2022-11-01T18:04:58.995Z,1.98
2022-11-01T18:07:47.896Z,1.73
2022-11-01T18:10:42.181Z,2.00
2022-11-01T18:13:42.870Z,2.67
2022-11-01T18:16:44.199Z,1.42
2022-11-01T18:19:48.077Z,1.88
2022-11-01T18:22:57.738Z,2.15
2022-11-01T18:25:47.262Z,2.20
2022-11-01T18:28:35.007Z,1.80
2022-11-01T18:31:27.363Z,1.80
2022-11-01T18:34:54.180Z,1.65
2022-11-01T18:38:02.788Z,2.45
2022-11-01T18:41:00.143Z,2.75
2022-11-01T18:43:46.250Z,2.03
2022-11-01T18:46:39.910Z,2.45
2022-11-01T18:49:27.302Z,1.88
2022-11-01T18:52:19.185Z,2.85
2022-11-01T18:55:13.629Z,1.95
2022-11-01T18:58:09.197Z,2.42
2022-11-01T19:01:11.835Z,3.10
2022-11-01T19:04:12.576Z,3.60
2022-11-01T19:07:12.700Z,3.30
2022-11-01T19:10:18.975Z,2.92
2022-11-01T19:13:12.817Z,2.20
2022-11-01T19:16:02.285Z,3.95
2022-11-01T19:18:50.094Z,2.80
2022-11-01T19:21:36.041Z,3.63
2022-11-01T19:24:31.680Z,2.60
2022-11-01T19:27:22.156Z,2.80
2022-11-01T19:30:36.997Z,2.40
2022-11-01T19:33:43.961Z,2.33
2022-11-01T19:39:40.754Z,2.65
2022-11-01T19:42:35.453Z,3.30
2022-11-01T19:45:32.662Z,2.78
2022-11-01T19:48:22.496Z,2.33
2022-11-01T19:51:24.547Z,2.92
2022-11-01T19:54:12.208Z,3.10
2022-11-01T19:57:00.462Z,2.80
2022-11-01T19:59:45.944Z,3.58
2022-11-01T20:02:34.827Z,2.60
2022-11-01T20:05:26.256Z,2.03
2022-11-01T20:08:20.318Z,2.78
2022-11-01T20:11:06.338Z,2.00
2022-11-01T20:13:52.022Z,2.15
2022-11-01T20:16:37.582Z,2.20
2022-11-01T20:19:23.298Z,2.47
2022-11-01T20:22:08.868Z,3.25
2022-11-01T20:24:54.418Z,2.25
2022-11-01T20:27:40.119Z,1.90
2022-11-01T20:30:25.279Z,2.20
2022-11-01T20:33:10.825Z,1.30
2022-11-01T20:35:56.554Z,1.77
2022-11-01T20:38:42.028Z,2.33
2022-11-01T20:41:27.467Z,1.85
2022-11-01T20:44:13.133Z,1.45
2022-11-01T20:46:58.344Z,1.40
2022-11-01T20:49:43.847Z,1.55
2022-11-01T20:52:44.921Z,2.00
2022-11-01T20:55:30.512Z,1.60
2022-11-01T20:58:16.008Z,1.83
2022-11-01T21:01:01.464Z,1.20
2022-11-01T21:03:46.997Z,1.55
2022-11-01T21:06:32.697Z,1.73
2022-11-01T21:09:30.385Z,2.65
2022-11-01T21:12:39.962Z,1.73
2022-11-01T21:15:36.912Z,1.67
2022-11-01T21:18:27.856Z,2.15
2022-11-01T21:21:16.461Z,1.85
2022-11-01T21:24:20.364Z,1.20
2022-11-01T21:27:10.434Z,1.77
2022-11-01T21:30:12.867Z,1.65
2022-11-01T21:32:58.623Z,1.88
2022-11-01T21:35:44.306Z,1.80
2022-11-01T21:38:40.165Z,2.08
2022-11-01T21:41:42.325Z,2.75
2022-11-01T21:44:39.839Z,1.67
2022-11-01T21:47:29.064Z,2.28
2022-11-01T21:50:14.528Z,2.55
2022-11-01T21:53:00.172Z,3.33
2022-11-01T21:55:45.871Z,2.92
2022-11-01T21:58:31.355Z,2.40
2022-11-01T22:01:16.772Z,2.72
2022-11-01T22:04:02.848Z,2.28
2022-11-01T22:06:49.324Z,3.38
2022-11-01T22:09:35.027Z,2.65
2022-11-01T22:12:20.460Z,3.00
2022-11-01T22:15:06.898Z,2.63
2022-11-01T22:17:52.746Z,2.80
2022-11-01T22:20:38.107Z,3.83
2022-11-01T22:23:23.600Z,2.90
2022-11-01T22:26:09.357Z,3.38
2022-11-01T22:28:55.070Z,3.05
2022-11-01T22:31:40.602Z,3.60
2022-11-01T22:34:26.147Z,3.92
2022-11-01T22:37:12.910Z,2.47
2022-11-01T22:39:58.808Z,4.15
2022-11-01T22:42:44.076Z,5.15
2022-11-01T22:45:29.662Z,4.05
2022-11-01T22:48:17.775Z,2.58
2022-11-01T22:51:06.589Z,2.90
2022-11-01T22:53:56.714Z,3.78
2022-11-01T22:56:42.602Z,3.80
2022-11-01T22:59:33.364Z,2.53
2022-11-01T23:02:19.097Z,2.20
2022-11-01T23:05:08.380Z,3.63
2022-11-01T23:07:57.007Z,2.42
2022-11-01T23:10:48.160Z,2.40
2022-11-01T23:13:58.138Z,3.40
2022-11-01T23:16:44.534Z,2.85
2022-11-01T23:19:29.962Z,3.15
2022-11-01T23:22:18.906Z,2.88
2022-11-01T23:25:04.914Z,2.00
2022-11-01T23:27:50.575Z,2.30
2022-11-01T23:30:36.453Z,2.60
2022-11-01T23:33:23.397Z,2.50
2022-11-01T23:36:26.233Z,2.80
2022-11-01T23:39:13.029Z,3.45
2022-11-01T23:41:58.501Z,2.50
2022-11-01T23:44:45.481Z,2.38
2022-11-01T23:47:39.836Z,1.73
2022-11-01T23:50:35.447Z,1.45
2022-11-01T23:53:27.991Z,1.45
2022-11-01T23:56:17.154Z,1.98
2022-11-01T23:59:04.459Z,1.63
